sensor_id;sensor_type;location;lat;lon;timestamp;P1;durP1;ratioP1;P2;durP2;ratioP2
18754;SDS011;35061;47.664;9.166;2023-04-28T00:00:30;3.90;;;3.15;;
18754;SDS011;35061;47.664;9.166;2023-04-28T00:02:57;3.90;;;3.40;;
18754;SDS011;35061;47.664;9.166;2023-04-28T00:05:26;5.32;;;3.58;;
18754;SDS011;35061;47.664;9.166;2023-04-28T00:07:54;4.40;;;3.30;;
18754;SDS011;35061;47.664;9.166;2023-04-28T00:10:22;3.42;;;3.12;;
18754;SDS011;35061;47.664;9.166;2023-04-28T00:12:50;3.80;;;3.30;;
18754;SDS011;35061;47.664;9.166;2023-04-28T00:15:18;3.30;;;3.00;;
18754;SDS011;35061;47.664;9.166;2023-04-28T00:17:46;3.05;;;2.75;;
18754;SDS011;35061;47.664;9.166;2023-04-28T00:20:14;5.25;;;3.35;;
18754;SDS011;35061;47.664;9.166;2023-04-28T00:22:42;3.15;;;2.70;;
18754;SDS011;35061;47.664;9.166;2023-04-28T00:25:10;3.80;;;2.75;;
18754;SDS011;35061;47.664;9.166;2023-04-28T00:27:38;3.80;;;3.42;;
18754;SDS011;35061;47.664;9.166;2023-04-28T00:30:06;4.62;;;2.80;;
18754;SDS011;35061;47.664;9.166;2023-04-28T00:32:34;3.65;;;3.28;;
18754;SDS011;35061;47.664;9.166;2023-04-28T00:35:03;3.72;;;3.30;;
18754;SDS011;35061;47.664;9.166;2023-04-28T00:37:34;3.20;;;2.90;;
18754;SDS011;35061;47.664;9.166;2023-04-28T00:40:03;6.70;;;3.50;;
18754;SDS011;35061;47.664;9.166;2023-04-28T00:42:31;3.55;;;3.05;;
18754;SDS011;35061;47.664;9.166;2023-04-28T00:45:00;3.70;;;3.03;;
18754;SDS011;35061;47.664;9.166;2023-04-28T00:47:32;3.37;;;2.67;;
18754;SDS011;35061;47.664;9.166;2023-04-28T00:50:01;6.32;;;3.28;;
18754;SDS011;35061;47.664;9.166;2023-04-28T00:52:32;3.55;;;2.83;;
18754;SDS011;35061;47.664;9.166;2023-04-28T00:55:00;3.60;;;3.30;;
18754;SDS011;35061;47.664;9.166;2023-04-28T00:57:28;3.42;;;3.12;;
18754;SDS011;35061;47.664;9.166;2023-04-28T00:59:57;5.75;;;3.58;;
18754;SDS011;35061;47.664;9.166;2023-04-28T01:02:26;3.90;;;3.50;;
18754;SDS011;35061;47.664;9.166;2023-04-28T01:04:56;3.60;;;2.80;;
18754;SDS011;35061;47.664;9.166;2023-04-28T01:07:25;4.00;;;3.12;;
18754;SDS011;35061;47.664;9.166;2023-04-28T01:09:54;4.50;;;3.42;;
18754;SDS011;35061;47.664;9.166;2023-04-28T01:12:22;3.83;;;2.90;;
18754;SDS011;35061;47.664;9.166;2023-04-28T01:14:50;2.80;;;2.50;;
18754;SDS011;35061;47.664;9.166;2023-04-28T01:17:18;3.47;;;3.17;;
18754;SDS011;35061;47.664;9.166;2023-04-28T01:19:46;3.25;;;2.67;;
18754;SDS011;35061;47.664;9.166;2023-04-28T01:22:14;3.80;;;2.53;;
18754;SDS011;35061;47.664;9.166;2023-04-28T01:24:43;4.37;;;3.25;;
18754;SDS011;35061;47.664;9.166;2023-04-28T01:27:11;4.65;;;3.67;;
18754;SDS011;35061;47.664;9.166;2023-04-28T01:29:39;3.12;;;2.83;;
18754;SDS011;35061;47.664;9.166;2023-04-28T01:32:07;4.62;;;3.00;;
18754;SDS011;35061;47.664;9.166;2023-04-28T01:34:35;3.97;;;3.25;;
18754;SDS011;35061;47.664;9.166;2023-04-28T01:37:03;3.30;;;3.00;;
18754;SDS011;35061;47.664;9.166;2023-04-28T01:39:31;3.40;;;3.10;;
18754;SDS011;35061;47.664;9.166;2023-04-28T01:41:59;4.35;;;3.20;;
18754;SDS011;35061;47.664;9.166;2023-04-28T01:44:28;4.97;;;3.35;;
18754;SDS011;35061;47.664;9.166;2023-04-28T01:46:56;5.25;;;3.12;;
18754;SDS011;35061;47.664;9.166;2023-04-28T01:49:24;5.65;;;4.35;;
18754;SDS011;35061;47.664;9.166;2023-04-28T01:51:52;4.87;;;3.50;;
18754;SDS011;35061;47.664;9.166;2023-04-28T01:54:20;4.15;;;3.28;;
18754;SDS011;35061;47.664;9.166;2023-04-28T01:59:55;3.87;;;3.55;;
18754;SDS011;35061;47.664;9.166;2023-04-28T02:02:23;3.87;;;3.22;;
18754;SDS011;35061;47.664;9.166;2023-04-28T02:04:51;3.33;;;2.97;;
18754;SDS011;35061;47.664;9.166;2023-04-28T02:07:20;3.33;;;3.03;;
18754;SDS011;35061;47.664;9.166;2023-04-28T02:09:47;4.40;;;2.75;;
18754;SDS011;35061;47.664;9.166;2023-04-28T02:12:15;3.75;;;2.70;;
18754;SDS011;35061;47.664;9.166;2023-04-28T02:14:44;3.05;;;2.70;;
18754;SDS011;35061;47.664;9.166;2023-04-28T02:17:12;3.22;;;2.92;;
18754;SDS011;35061;47.664;9.166;2023-04-28T02:19:40;3.22;;;2.92;;
18754;SDS011;35061;47.664;9.166;2023-04-28T02:22:08;3.83;;;3.00;;
18754;SDS011;35061;47.664;9.166;2023-04-28T02:24:36;4.05;;;3.40;;
18754;SDS011;35061;47.664;9.166;2023-04-28T02:27:05;3.58;;;3.28;;
18754;SDS011;35061;47.664;9.166;2023-04-28T02:29:33;3.67;;;3.28;;
18754;SDS011;35061;47.664;9.166;2023-04-28T02:32:00;3.50;;;3.05;;
18754;SDS011;35061;47.664;9.166;2023-04-28T02:34:29;4.00;;;3.28;;
18754;SDS011;35061;47.664;9.166;2023-04-28T02:36:57;5.35;;;3.90;;
18754;SDS011;35061;47.664;9.166;2023-04-28T02:39:25;4.07;;;3.67;;
18754;SDS011;35061;47.664;9.166;2023-04-28T02:41:53;4.35;;;3.62;;
18754;SDS011;35061;47.664;9.166;2023-04-28T02:44:21;4.60;;;3.78;;
18754;SDS011;35061;47.664;9.166;2023-04-28T02:46:49;5.20;;;3.60;;
18754;SDS011;35061;47.664;9.166;2023-04-28T02:49:17;5.75;;;4.18;;
18754;SDS011;35061;47.664;9.166;2023-04-28T02:51:45;5.82;;;4.20;;
18754;SDS011;35061;47.664;9.166;2023-04-28T02:54:13;4.30;;;3.75;;
18754;SDS011;35061;47.664;9.166;2023-04-28T02:56:41;5.50;;;4.37;;
18754;SDS011;35061;47.664;9.166;2023-04-28T02:59:09;4.55;;;3.87;;
18754;SDS011;35061;47.664;9.166;2023-04-28T03:01:37;4.50;;;4.00;;
18754;SDS011;35061;47.664;9.166;2023-04-28T03:04:05;4.80;;;4.28;;
18754;SDS011;35061;47.664;9.166;2023-04-28T03:06:34;5.43;;;3.95;;
18754;SDS011;35061;47.664;9.166;2023-04-28T03:09:02;4.97;;;3.75;;
18754;SDS011;35061;47.664;9.166;2023-04-28T03:11:31;4.53;;;4.10;;
18754;SDS011;35061;47.664;9.166;2023-04-28T03:13:59;5.10;;;4.60;;
18754;SDS011;35061;47.664;9.166;2023-04-28T03:16:27;5.75;;;4.10;;
18754;SDS011;35061;47.664;9.166;2023-04-28T03:18:55;5.05;;;4.03;;
18754;SDS011;35061;47.664;9.166;2023-04-28T03:21:23;4.12;;;3.70;;
18754;SDS011;35061;47.664;9.166;2023-04-28T03:23:53;6.12;;;4.05;;
18754;SDS011;35061;47.664;9.166;2023-04-28T03:26:21;6.45;;;4.45;;
18754;SDS011;35061;47.664;9.166;2023-04-28T03:28:49;4.43;;;3.90;;
18754;SDS011;35061;47.664;9.166;2023-04-28T03:31:17;5.05;;;4.30;;
18754;SDS011;35061;47.664;9.166;2023-04-28T03:33:44;4.97;;;4.28;;
18754;SDS011;35061;47.664;9.166;2023-04-28T03:36:13;7.62;;;4.87;;
18754;SDS011;35061;47.664;9.166;2023-04-28T03:38:41;6.25;;;4.90;;
18754;SDS011;35061;47.664;9.166;2023-04-28T03:41:10;6.32;;;4.80;;
18754;SDS011;35061;47.664;9.166;2023-04-28T03:43:38;7.43;;;4.60;;
18754;SDS011;35061;47.664;9.166;2023-04-28T03:46:06;5.12;;;4.45;;
18754;SDS011;35061;47.664;9.166;2023-04-28T03:48:33;6.00;;;4.90;;
18754;SDS011;35061;47.664;9.166;2023-04-28T03:51:01;6.03;;;5.43;;
18754;SDS011;35061;47.664;9.166;2023-04-28T03:53:29;8.10;;;4.97;;
18754;SDS011;35061;47.664;9.166;2023-04-28T03:55:57;8.18;;;4.50;;
18754;SDS011;35061;47.664;9.166;2023-04-28T03:58:25;6.25;;;5.35;;
18754;SDS011;35061;47.664;9.166;2023-04-28T04:00:55;6.57;;;5.53;;
18754;SDS011;35061;47.664;9.166;2023-04-28T04:03:23;6.87;;;5.20;;
18754;SDS011;35061;47.664;9.166;2023-04-28T04:05:53;6.43;;;4.90;;
18754;SDS011;35061;47.664;9.166;2023-04-28T04:08:22;9.13;;;5.50;;
18754;SDS011;35061;47.664;9.166;2023-04-28T04:10:50;6.20;;;5.45;;
18754;SDS011;35061;47.664;9.166;2023-04-28T04:13:19;10.40;;;6.07;;
18754;SDS011;35061;47.664;9.166;2023-04-28T04:15:47;7.70;;;6.05;;
18754;SDS011;35061;47.664;9.166;2023-04-28T04:18:17;7.55;;;4.57;;
18754;SDS011;35061;47.664;9.166;2023-04-28T04:20:45;8.57;;;5.43;;
18754;SDS011;35061;47.664;9.166;2023-04-28T04:23:22;7.68;;;6.05;;
18754;SDS011;35061;47.664;9.166;2023-04-28T04:25:50;8.02;;;6.10;;
18754;SDS011;35061;47.664;9.166;2023-04-28T04:28:18;7.22;;;5.93;;
18754;SDS011;35061;47.664;9.166;2023-04-28T04:30:46;7.65;;;6.82;;
18754;SDS011;35061;47.664;9.166;2023-04-28T04:33:14;9.25;;;6.62;;
18754;SDS011;35061;47.664;9.166;2023-04-28T04:35:42;7.37;;;6.68;;
18754;SDS011;35061;47.664;9.166;2023-04-28T04:38:10;9.10;;;6.72;;
18754;SDS011;35061;47.664;9.166;2023-04-28T04:40:38;8.63;;;6.75;;
18754;SDS011;35061;47.664;9.166;2023-04-28T04:43:06;8.43;;;7.05;;
18754;SDS011;35061;47.664;9.166;2023-04-28T04:45:34;8.10;;;6.95;;
18754;SDS011;35061;47.664;9.166;2023-04-28T04:48:01;9.88;;;6.90;;
18754;SDS011;35061;47.664;9.166;2023-04-28T04:50:30;10.07;;;7.10;;
18754;SDS011;35061;47.664;9.166;2023-04-28T04:52:58;11.80;;;6.75;;
18754;SDS011;35061;47.664;9.166;2023-04-28T04:55:26;11.55;;;8.60;;
18754;SDS011;35061;47.664;9.166;2023-04-28T04:57:54;10.80;;;7.57;;
18754;SDS011;35061;47.664;9.166;2023-04-28T05:00:21;13.18;;;7.82;;
18754;SDS011;35061;47.664;9.166;2023-04-28T05:02:49;9.95;;;7.35;;
18754;SDS011;35061;47.664;9.166;2023-04-28T05:05:18;14.35;;;7.80;;
18754;SDS011;35061;47.664;9.166;2023-04-28T05:07:48;9.10;;;7.90;;
18754;SDS011;35061;47.664;9.166;2023-04-28T05:10:16;10.80;;;7.82;;
18754;SDS011;35061;47.664;9.166;2023-04-28T05:12:43;11.88;;;8.15;;
18754;SDS011;35061;47.664;9.166;2023-04-28T05:15:14;13.02;;;8.35;;
18754;SDS011;35061;47.664;9.166;2023-04-28T05:17:42;9.55;;;7.75;;
18754;SDS011;35061;47.664;9.166;2023-04-28T05:20:10;13.80;;;8.13;;
18754;SDS011;35061;47.664;9.166;2023-04-28T05:22:38;11.12;;;7.93;;
18754;SDS011;35061;47.664;9.166;2023-04-28T05:25:07;16.87;;;8.77;;
18754;SDS011;35061;47.664;9.166;2023-04-28T05:27:35;13.23;;;8.68;;
18754;SDS011;35061;47.664;9.166;2023-04-28T05:30:07;9.60;;;8.02;;
18754;SDS011;35061;47.664;9.166;2023-04-28T05:32:36;11.12;;;8.20;;
18754;SDS011;35061;47.664;9.166;2023-04-28T05:35:05;10.80;;;7.47;;
18754;SDS011;35061;47.664;9.166;2023-04-28T05:37:33;10.20;;;7.50;;
18754;SDS011;35061;47.664;9.166;2023-04-28T05:40:01;9.07;;;7.03;;
18754;SDS011;35061;47.664;9.166;2023-04-28T05:42:29;11.23;;;6.62;;
18754;SDS011;35061;47.664;9.166;2023-04-28T05:44:57;7.35;;;5.15;;
18754;SDS011;35061;47.664;9.166;2023-04-28T05:47:25;7.43;;;5.72;;
18754;SDS011;35061;47.664;9.166;2023-04-28T05:49:53;5.75;;;5.18;;
18754;SDS011;35061;47.664;9.166;2023-04-28T05:52:21;6.28;;;5.55;;
18754;SDS011;35061;47.664;9.166;2023-04-28T05:54:49;5.37;;;3.47;;
18754;SDS011;35061;47.664;9.166;2023-04-28T05:57:17;5.28;;;4.78;;
18754;SDS011;35061;47.664;9.166;2023-04-28T05:59:45;6.07;;;4.32;;
18754;SDS011;35061;47.664;9.166;2023-04-28T06:02:23;4.28;;;3.80;;
18754;SDS011;35061;47.664;9.166;2023-04-28T06:05:04;4.65;;;3.58;;
18754;SDS011;35061;47.664;9.166;2023-04-28T06:07:39;6.45;;;4.47;;
18754;SDS011;35061;47.664;9.166;2023-04-28T06:10:21;4.55;;;3.95;;
18754;SDS011;35061;47.664;9.166;2023-04-28T06:12:58;4.15;;;3.75;;
18754;SDS011;35061;47.664;9.166;2023-04-28T06:15:32;4.62;;;3.80;;
18754;SDS011;35061;47.664;9.166;2023-04-28T06:18:14;4.55;;;4.15;;
18754;SDS011;35061;47.664;9.166;2023-04-28T06:35:23;4.00;;;3.40;;
18754;SDS011;35061;47.664;9.166;2023-04-28T06:37:51;5.30;;;3.92;;
18754;SDS011;35061;47.664;9.166;2023-04-28T06:40:19;4.32;;;3.70;;
18754;SDS011;35061;47.664;9.166;2023-04-28T06:42:47;4.60;;;3.37;;
18754;SDS011;35061;47.664;9.166;2023-04-28T06:45:15;5.40;;;3.53;;
18754;SDS011;35061;47.664;9.166;2023-04-28T06:47:43;4.68;;;3.28;;
18754;SDS011;35061;47.664;9.166;2023-04-28T06:50:11;4.53;;;3.58;;
18754;SDS011;35061;47.664;9.166;2023-04-28T06:52:39;4.00;;;3.50;;
18754;SDS011;35061;47.664;9.166;2023-04-28T06:55:07;3.28;;;2.97;;
18754;SDS011;35061;47.664;9.166;2023-04-28T06:57:36;3.97;;;3.15;;
18754;SDS011;35061;47.664;9.166;2023-04-28T07:00:04;4.35;;;3.40;;
18754;SDS011;35061;47.664;9.166;2023-04-28T07:02:33;3.67;;;3.10;;
18754;SDS011;35061;47.664;9.166;2023-04-28T07:05:02;4.93;;;3.20;;
18754;SDS011;35061;47.664;9.166;2023-04-28T07:07:30;3.08;;;2.85;;
18754;SDS011;35061;47.664;9.166;2023-04-28T07:09:59;3.83;;;2.75;;
18754;SDS011;35061;47.664;9.166;2023-04-28T07:12:27;3.47;;;3.05;;
18754;SDS011;35061;47.664;9.166;2023-04-28T07:14:55;2.78;;;2.22;;
18754;SDS011;35061;47.664;9.166;2023-04-28T07:17:23;2.28;;;2.08;;
18754;SDS011;35061;47.664;9.166;2023-04-28T07:19:51;2.87;;;1.92;;
18754;SDS011;35061;47.664;9.166;2023-04-28T07:22:19;3.12;;;2.40;;
18754;SDS011;35061;47.664;9.166;2023-04-28T07:24:47;2.92;;;2.10;;
18754;SDS011;35061;47.664;9.166;2023-04-28T07:27:15;2.20;;;2.00;;
18754;SDS011;35061;47.664;9.166;2023-04-28T07:29:43;3.95;;;2.20;;
18754;SDS011;35061;47.664;9.166;2023-04-28T07:32:11;3.15;;;2.22;;
18754;SDS011;35061;47.664;9.166;2023-04-28T07:34:39;3.60;;;2.65;;
18754;SDS011;35061;47.664;9.166;2023-04-28T07:37:07;2.12;;;1.92;;
18754;SDS011;35061;47.664;9.166;2023-04-28T07:39:36;2.67;;;2.30;;
18754;SDS011;35061;47.664;9.166;2023-04-28T07:42:05;3.85;;;2.28;;
18754;SDS011;35061;47.664;9.166;2023-04-28T07:44:34;3.80;;;2.20;;
18754;SDS011;35061;47.664;9.166;2023-04-28T07:47:02;3.00;;;2.58;;
18754;SDS011;35061;47.664;9.166;2023-04-28T07:49:30;3.15;;;2.28;;
18754;SDS011;35061;47.664;9.166;2023-04-28T07:51:58;2.80;;;2.42;;
18754;SDS011;35061;47.664;9.166;2023-04-28T07:54:26;3.40;;;2.35;;
18754;SDS011;35061;47.664;9.166;2023-04-28T07:56:55;2.53;;;1.77;;
18754;SDS011;35061;47.664;9.166;2023-04-28T07:59:24;2.78;;;2.28;;
18754;SDS011;35061;47.664;9.166;2023-04-28T08:01:52;4.45;;;2.42;;
18754;SDS011;35061;47.664;9.166;2023-04-28T08:04:20;2.67;;;2.33;;
18754;SDS011;35061;47.664;9.166;2023-04-28T08:06:49;2.03;;;1.83;;
18754;SDS011;35061;47.664;9.166;2023-04-28T08:09:17;2.20;;;2.00;;
18754;SDS011;35061;47.664;9.166;2023-04-28T08:11:45;1.95;;;1.70;;
18754;SDS011;35061;47.664;9.166;2023-04-28T08:14:13;3.75;;;2.08;;
18754;SDS011;35061;47.664;9.166;2023-04-28T08:16:41;2.28;;;1.90;;
18754;SDS011;35061;47.664;9.166;2023-04-28T08:19:10;5.10;;;2.00;;
18754;SDS011;35061;47.664;9.166;2023-04-28T08:21:38;2.78;;;1.80;;
18754;SDS011;35061;47.664;9.166;2023-04-28T08:24:06;1.77;;;1.67;;
18754;SDS011;35061;47.664;9.166;2023-04-28T08:26:35;2.53;;;2.10;;
18754;SDS011;35061;47.664;9.166;2023-04-28T08:29:03;3.00;;;1.83;;
18754;SDS011;35061;47.664;9.166;2023-04-28T08:31:31;2.08;;;1.67;;
18754;SDS011;35061;47.664;9.166;2023-04-28T08:34:00;3.33;;;2.40;;
18754;SDS011;35061;47.664;9.166;2023-04-28T08:36:27;3.22;;;2.30;;
18754;SDS011;35061;47.664;9.166;2023-04-28T08:38:59;3.40;;;2.03;;
18754;SDS011;35061;47.664;9.166;2023-04-28T08:41:31;3.10;;;2.45;;
18754;SDS011;35061;47.664;9.166;2023-04-28T08:43:59;2.62;;;2.28;;
18754;SDS011;35061;47.664;9.166;2023-04-28T08:46:27;3.95;;;2.75;;
18754;SDS011;35061;47.664;9.166;2023-04-28T08:48:58;4.03;;;2.65;;
18754;SDS011;35061;47.664;9.166;2023-04-28T08:51:34;2.30;;;2.10;;
18754;SDS011;35061;47.664;9.166;2023-04-28T08:54:10;6.47;;;2.80;;
18754;SDS011;35061;47.664;9.166;2023-04-28T08:56:51;4.10;;;3.53;;
18754;SDS011;35061;47.664;9.166;2023-04-28T08:59:19;3.60;;;2.92;;
18754;SDS011;35061;47.664;9.166;2023-04-28T09:01:48;4.20;;;3.25;;
18754;SDS011;35061;47.664;9.166;2023-04-28T09:04:17;5.07;;;3.30;;
18754;SDS011;35061;47.664;9.166;2023-04-28T09:06:45;4.82;;;3.00;;
18754;SDS011;35061;47.664;9.166;2023-04-28T09:09:23;3.72;;;2.97;;
18754;SDS011;35061;47.664;9.166;2023-04-28T09:12:02;3.08;;;2.78;;
18754;SDS011;35061;47.664;9.166;2023-04-28T09:14:31;5.15;;;2.70;;
18754;SDS011;35061;47.664;9.166;2023-04-28T09:17:01;3.25;;;2.50;;
18754;SDS011;35061;47.664;9.166;2023-04-28T09:19:36;2.95;;;2.53;;
18754;SDS011;35061;47.664;9.166;2023-04-28T09:22:05;2.50;;;2.28;;
18754;SDS011;35061;47.664;9.166;2023-04-28T09:24:51;2.80;;;2.60;;
18754;SDS011;35061;47.664;9.166;2023-04-28T09:27:25;3.90;;;2.50;;
18754;SDS011;35061;47.664;9.166;2023-04-28T09:29:55;3.42;;;2.58;;
18754;SDS011;35061;47.664;9.166;2023-04-28T09:32:23;2.42;;;2.22;;
18754;SDS011;35061;47.664;9.166;2023-04-28T09:34:54;3.20;;;2.53;;
18754;SDS011;35061;47.664;9.166;2023-04-28T09:37:26;3.87;;;2.87;;
18754;SDS011;35061;47.664;9.166;2023-04-28T09:40:01;2.72;;;2.30;;
18754;SDS011;35061;47.664;9.166;2023-04-28T09:42:33;3.00;;;2.28;;
18754;SDS011;35061;47.664;9.166;2023-04-28T09:45:09;2.83;;;1.92;;
18754;SDS011;35061;47.664;9.166;2023-04-28T09:47:44;2.40;;;2.20;;
18754;SDS011;35061;47.664;9.166;2023-04-28T09:50:14;3.35;;;2.50;;
18754;SDS011;35061;47.664;9.166;2023-04-28T09:52:44;2.42;;;2.20;;
18754;SDS011;35061;47.664;9.166;2023-04-28T09:55:24;3.00;;;2.08;;
18754;SDS011;35061;47.664;9.166;2023-04-28T09:57:54;2.53;;;2.25;;
18754;SDS011;35061;47.664;9.166;2023-04-28T10:00:23;3.15;;;2.47;;
18754;SDS011;35061;47.664;9.166;2023-04-28T10:02:51;2.47;;;1.98;;
18754;SDS011;35061;47.664;9.166;2023-04-28T10:05:20;2.25;;;2.05;;
18754;SDS011;35061;47.664;9.166;2023-04-28T10:07:49;3.20;;;2.00;;
18754;SDS011;35061;47.664;9.166;2023-04-28T10:10:20;3.67;;;2.30;;
18754;SDS011;35061;47.664;9.166;2023-04-28T10:12:48;3.60;;;2.45;;
18754;SDS011;35061;47.664;9.166;2023-04-28T10:15:18;4.85;;;2.47;;
18754;SDS011;35061;47.664;9.166;2023-04-28T10:17:47;2.78;;;2.20;;
18754;SDS011;35061;47.664;9.166;2023-04-28T10:20:17;2.75;;;2.50;;
18754;SDS011;35061;47.664;9.166;2023-04-28T10:25:38;2.80;;;2.55;;
18754;SDS011;35061;47.664;9.166;2023-04-28T10:28:08;3.60;;;2.50;;
18754;SDS011;35061;47.664;9.166;2023-04-28T10:30:37;3.00;;;2.05;;
18754;SDS011;35061;47.664;9.166;2023-04-28T10:35:43;2.62;;;2.20;;
18754;SDS011;35061;47.664;9.166;2023-04-28T10:38:13;2.72;;;2.53;;
18754;SDS011;35061;47.664;9.166;2023-04-28T10:40:45;2.90;;;2.70;;
18754;SDS011;35061;47.664;9.166;2023-04-28T10:58:52;3.60;;;2.78;;
18754;SDS011;35061;47.664;9.166;2023-04-28T11:01:24;2.50;;;2.30;;
18754;SDS011;35061;47.664;9.166;2023-04-28T11:06:44;3.92;;;2.80;;
18754;SDS011;35061;47.664;9.166;2023-04-28T11:16:49;3.60;;;2.62;;
18754;SDS011;35061;47.664;9.166;2023-04-28T11:21:57;2.67;;;2.47;;
18754;SDS011;35061;47.664;9.166;2023-04-28T11:24:27;2.58;;;2.37;;
18754;SDS011;35061;47.664;9.166;2023-04-28T11:26:56;2.78;;;2.58;;
18754;SDS011;35061;47.664;9.166;2023-04-28T11:29:35;3.30;;;2.30;;
18754;SDS011;35061;47.664;9.166;2023-04-28T11:32:05;2.92;;;2.62;;
18754;SDS011;35061;47.664;9.166;2023-04-28T11:34:34;3.30;;;2.40;;
18754;SDS011;35061;47.664;9.166;2023-04-28T11:37:03;4.25;;;2.58;;
18754;SDS011;35061;47.664;9.166;2023-04-28T11:39:33;2.83;;;2.55;;
18754;SDS011;35061;47.664;9.166;2023-04-28T11:42:07;2.87;;;2.40;;
18754;SDS011;35061;47.664;9.166;2023-04-28T11:44:37;3.90;;;2.55;;
18754;SDS011;35061;47.664;9.166;2023-04-28T11:47:05;3.25;;;2.55;;
18754;SDS011;35061;47.664;9.166;2023-04-28T11:49:41;3.72;;;2.70;;
18754;SDS011;35061;47.664;9.166;2023-04-28T11:52:11;3.17;;;2.65;;
18754;SDS011;35061;47.664;9.166;2023-04-28T11:54:40;2.92;;;2.60;;
18754;SDS011;35061;47.664;9.166;2023-04-28T11:57:17;3.72;;;2.50;;
18754;SDS011;35061;47.664;9.166;2023-04-28T11:59:47;3.60;;;3.25;;
18754;SDS011;35061;47.664;9.166;2023-04-28T12:02:18;2.60;;;2.37;;
18754;SDS011;35061;47.664;9.166;2023-04-28T12:04:52;2.85;;;2.62;;
18754;SDS011;35061;47.664;9.166;2023-04-28T12:07:20;4.60;;;2.90;;
18754;SDS011;35061;47.664;9.166;2023-04-28T12:10:10;3.08;;;2.78;;
18754;SDS011;35061;47.664;9.166;2023-04-28T12:12:42;3.45;;;3.15;;
18754;SDS011;35061;47.664;9.166;2023-04-28T12:15:17;3.17;;;2.87;;
18754;SDS011;35061;47.664;9.166;2023-04-28T12:17:47;4.97;;;3.05;;
18754;SDS011;35061;47.664;9.166;2023-04-28T12:20:35;3.95;;;3.42;;
18754;SDS011;35061;47.664;9.166;2023-04-28T12:23:04;3.45;;;3.15;;
18754;SDS011;35061;47.664;9.166;2023-04-28T12:25:41;3.78;;;3.22;;
18754;SDS011;35061;47.664;9.166;2023-04-28T12:28:10;3.78;;;3.37;;
18754;SDS011;35061;47.664;9.166;2023-04-28T12:30:38;6.30;;;2.70;;
18754;SDS011;35061;47.664;9.166;2023-04-28T12:33:21;5.60;;;3.10;;
18754;SDS011;35061;47.664;9.166;2023-04-28T12:35:53;5.65;;;3.20;;
18754;SDS011;35061;47.664;9.166;2023-04-28T12:38:24;3.00;;;2.80;;
18754;SDS011;35061;47.664;9.166;2023-04-28T12:40:53;5.05;;;3.03;;
18754;SDS011;35061;47.664;9.166;2023-04-28T12:43:21;3.37;;;3.08;;
18754;SDS011;35061;47.664;9.166;2023-04-28T12:45:50;3.05;;;2.75;;
18754;SDS011;35061;47.664;9.166;2023-04-28T12:48:20;2.90;;;2.70;;
18754;SDS011;35061;47.664;9.166;2023-04-28T12:50:50;5.20;;;3.00;;
18754;SDS011;35061;47.664;9.166;2023-04-28T12:53:18;2.60;;;2.40;;
18754;SDS011;35061;47.664;9.166;2023-04-28T12:55:46;4.03;;;2.97;;
18754;SDS011;35061;47.664;9.166;2023-04-28T12:58:14;4.37;;;2.60;;
18754;SDS011;35061;47.664;9.166;2023-04-28T13:00:42;2.67;;;2.40;;
18754;SDS011;35061;47.664;9.166;2023-04-28T13:03:10;4.05;;;2.62;;
18754;SDS011;35061;47.664;9.166;2023-04-28T13:05:39;3.45;;;2.85;;
18754;SDS011;35061;47.664;9.166;2023-04-28T13:08:07;3.37;;;2.92;;
18754;SDS011;35061;47.664;9.166;2023-04-28T13:10:35;2.80;;;2.55;;
18754;SDS011;35061;47.664;9.166;2023-04-28T13:13:03;2.70;;;2.50;;
18754;SDS011;35061;47.664;9.166;2023-04-28T13:15:32;3.22;;;2.55;;
18754;SDS011;35061;47.664;9.166;2023-04-28T13:18:02;2.70;;;2.50;;
18754;SDS011;35061;47.664;9.166;2023-04-28T13:20:30;3.25;;;2.95;;
18754;SDS011;35061;47.664;9.166;2023-04-28T13:22:58;3.33;;;3.03;;
18754;SDS011;35061;47.664;9.166;2023-04-28T13:25:27;3.67;;;2.95;;
18754;SDS011;35061;47.664;9.166;2023-04-28T13:27:54;3.15;;;2.85;;
18754;SDS011;35061;47.664;9.166;2023-04-28T13:30:23;3.53;;;3.22;;
18754;SDS011;35061;47.664;9.166;2023-04-28T13:32:51;4.03;;;3.00;;
18754;SDS011;35061;47.664;9.166;2023-04-28T13:35:22;3.00;;;2.70;;
18754;SDS011;35061;47.664;9.166;2023-04-28T13:37:50;5.93;;;2.80;;
18754;SDS011;35061;47.664;9.166;2023-04-28T13:40:22;3.47;;;3.12;;
18754;SDS011;35061;47.664;9.166;2023-04-28T13:42:50;3.78;;;3.00;;
18754;SDS011;35061;47.664;9.166;2023-04-28T13:45:18;4.22;;;3.60;;
18754;SDS011;35061;47.664;9.166;2023-04-28T13:47:48;3.80;;;3.35;;
18754;SDS011;35061;47.664;9.166;2023-04-28T13:50:17;3.53;;;3.22;;
18754;SDS011;35061;47.664;9.166;2023-04-28T13:52:45;3.53;;;3.10;;
18754;SDS011;35061;47.664;9.166;2023-04-28T13:55:13;2.50;;;2.30;;
18754;SDS011;35061;47.664;9.166;2023-04-28T13:57:41;3.60;;;3.00;;
18754;SDS011;35061;47.664;9.166;2023-04-28T14:00:09;3.75;;;3.10;;
18754;SDS011;35061;47.664;9.166;2023-04-28T14:02:38;2.90;;;2.53;;
18754;SDS011;35061;47.664;9.166;2023-04-28T14:05:06;4.45;;;3.50;;
18754;SDS011;35061;47.664;9.166;2023-04-28T14:07:34;3.40;;;3.10;;
18754;SDS011;35061;47.664;9.166;2023-04-28T14:10:03;3.87;;;3.08;;
18754;SDS011;35061;47.664;9.166;2023-04-28T14:12:31;3.92;;;2.50;;
18754;SDS011;35061;47.664;9.166;2023-04-28T14:14:59;2.70;;;2.50;;
18754;SDS011;35061;47.664;9.166;2023-04-28T14:17:27;2.75;;;2.42;;
18754;SDS011;35061;47.664;9.166;2023-04-28T14:19:55;2.72;;;2.53;;
18754;SDS011;35061;47.664;9.166;2023-04-28T14:22:23;2.42;;;2.22;;
18754;SDS011;35061;47.664;9.166;2023-04-28T14:24:51;2.40;;;2.20;;
18754;SDS011;35061;47.664;9.166;2023-04-28T14:27:20;2.30;;;2.10;;
18754;SDS011;35061;47.664;9.166;2023-04-28T14:29:48;3.47;;;2.45;;
18754;SDS011;35061;47.664;9.166;2023-04-28T14:32:16;2.70;;;2.28;;
18754;SDS011;35061;47.664;9.166;2023-04-28T14:34:48;2.75;;;2.30;;
18754;SDS011;35061;47.664;9.166;2023-04-28T14:37:16;2.97;;;2.50;;
18754;SDS011;35061;47.664;9.166;2023-04-28T14:39:44;3.92;;;2.22;;
18754;SDS011;35061;47.664;9.166;2023-04-28T14:42:12;3.50;;;2.50;;
18754;SDS011;35061;47.664;9.166;2023-04-28T14:44:40;3.55;;;2.08;;
18754;SDS011;35061;47.664;9.166;2023-04-28T14:47:08;2.95;;;2.40;;
18754;SDS011;35061;47.664;9.166;2023-04-28T14:49:37;2.80;;;2.60;;
18754;SDS011;35061;47.664;9.166;2023-04-28T14:52:05;3.03;;;2.40;;
18754;SDS011;35061;47.664;9.166;2023-04-28T14:54:33;2.87;;;2.67;;
18754;SDS011;35061;47.664;9.166;2023-04-28T14:57:01;2.37;;;2.17;;
18754;SDS011;35061;47.664;9.166;2023-04-28T14:59:29;3.47;;;2.80;;
18754;SDS011;35061;47.664;9.166;2023-04-28T15:01:57;3.08;;;2.70;;
18754;SDS011;35061;47.664;9.166;2023-04-28T15:04:25;5.53;;;2.70;;
18754;SDS011;35061;47.664;9.166;2023-04-28T15:06:57;4.05;;;2.95;;
18754;SDS011;35061;47.664;9.166;2023-04-28T15:09:26;2.80;;;2.60;;
18754;SDS011;35061;47.664;9.166;2023-04-28T15:11:54;3.30;;;2.92;;
18754;SDS011;35061;47.664;9.166;2023-04-28T15:14:22;2.50;;;2.30;;
18754;SDS011;35061;47.664;9.166;2023-04-28T15:16:50;3.97;;;2.62;;
18754;SDS011;35061;47.664;9.166;2023-04-28T15:19:18;2.60;;;2.40;;
18754;SDS011;35061;47.664;9.166;2023-04-28T15:21:46;6.12;;;2.55;;
18754;SDS011;35061;47.664;9.166;2023-04-28T15:24:15;3.00;;;2.33;;
18754;SDS011;35061;47.664;9.166;2023-04-28T15:26:45;2.58;;;2.37;;
18754;SDS011;35061;47.664;9.166;2023-04-28T15:29:13;3.17;;;2.60;;
18754;SDS011;35061;47.664;9.166;2023-04-28T15:31:41;3.85;;;2.95;;
18754;SDS011;35061;47.664;9.166;2023-04-28T15:34:09;2.97;;;2.67;;
18754;SDS011;35061;47.664;9.166;2023-04-28T15:36:38;3.12;;;2.40;;
18754;SDS011;35061;47.664;9.166;2023-04-28T15:39:06;2.92;;;2.47;;
18754;SDS011;35061;47.664;9.166;2023-04-28T15:41:35;2.80;;;2.42;;
18754;SDS011;35061;47.664;9.166;2023-04-28T15:44:04;2.65;;;2.45;;
18754;SDS011;35061;47.664;9.166;2023-04-28T15:46:32;4.25;;;2.97;;
18754;SDS011;35061;47.664;9.166;2023-04-28T15:48:59;3.15;;;2.85;;
18754;SDS011;35061;47.664;9.166;2023-04-28T15:51:28;2.90;;;2.60;;